Alton, TX

4:45 AM CDT on May 06, 2015 (GMT -0500)
North Cummings Ave | | Change Station
CLOSE
Current Station
Personal Weather Station
Location: Mission, TX
Elevation: 154 ft
Nearby Weather Stations

Elev 154 ft 26.23 °N, 98.33 °W | Updated 10 minutes ago

Overcast
Overcast
74.8 °F
Feels Like 73 °F
N
3.6
Wind Variable Wind from SSE
Gusts 3.6 mph

Today
High -- | Low -- °F
--% Chance of Precip.
Yesterday
High -- | Low -- °F
Precip. -- in
6:52 AM 8:07 PM
Waning Gibbous, 95% visible
Pressure 29.85 in
Visibility 9.0 miles
Clouds Few 1200 ft
Mostly Cloudy 3100 ft
Heat Index 73 °F
Dew Point 73 °F
Humidity 93%
Rainfall 0.00 in
Snow Depth Not available.
UV 0 out of 12
Pollen 6.40 out of 12
Air Quality Not available.
Flu Activity Sporadic
SPECI KMFE 060917Z 12012KT 9SM FEW012 BKN031 25/23 A2985 RMK AO2 T02500228

More Conditions Fewer Conditions

Pressure 29.85 in
Visibility 9.0 miles
Clouds Few 1200 ft
Mostly Cloudy 3100 ft
Heat Index 73 °F
Dew Point 73 °F
Humidity 93%
Rainfall 0.00 in
Snow Depth Not available.
UV 0 out of 12
Pollen 6.40 out of 12
Air Quality Not available.
Flu Activity Sporadic
SPECI KMFE 060917Z 12012KT 9SM FEW012 BKN031 25/23 A2985 RMK AO2 T02500228

More Conditions Fewer Conditions

10-Day Weather Forecast

Almanac

Astronomy

May. 06, 2015 Rise Set
Actual Time
Civil Twilight
Nautical Twilight
Astronomical Twilight
Moon
Length of Visible Light
Length of Day
Tomorrow will be .
, % of the Moon is Illuminated

Today's Extremes

State Highs State Lows

Community

WunderPhotos

Upload Photos

1,818,859 photos uploaded!

WunderBlogs® & News

Nearby

Air Quality

  Air Quality AQ Index Pollutant
Not available.

Snow Depth

Station Depth Elevation

Earthquake Activity

City Distance Mag. Time & Date
Minimum magnitude displayed is 2.5.

Coastal Water Temperatures

Place Temperature

Stations

Nearby Weather Stations

Station Location Temp. Windchill Dew Point Humidity Wind Precip. Elev Updated Type